createdAt,value
2023-10-26T00:01:11.348Z,6.13
2023-10-26T00:03:28.432Z,4.22
2023-10-26T00:05:45.366Z,6.32
2023-10-26T00:08:02.331Z,10.02
2023-10-26T00:10:19.655Z,5.47
2023-10-26T00:12:36.612Z,5.93
2023-10-26T00:14:53.534Z,4.05
2023-10-26T00:17:10.520Z,5.22
2023-10-26T00:19:28.565Z,5.07
2023-10-26T00:21:45.544Z,4.72
2023-10-26T00:24:02.443Z,6.60
2023-10-26T00:26:19.346Z,4.90
2023-10-26T00:28:36.255Z,6.07
2023-10-26T00:30:53.209Z,6.80
2023-10-26T00:33:10.389Z,5.00
2023-10-26T00:35:27.457Z,6.55
2023-10-26T00:37:44.410Z,8.50
2023-10-26T00:40:01.318Z,5.80
2023-10-26T00:42:18.845Z,5.20
2023-10-26T00:44:35.903Z,4.68
2023-10-26T00:46:52.786Z,5.13
2023-10-26T00:49:09.790Z,4.30
2023-10-26T00:51:26.707Z,4.35
2023-10-26T00:53:43.636Z,4.55
2023-10-26T00:56:00.590Z,3.65
2023-10-26T00:58:17.612Z,6.68
2023-10-26T01:00:34.512Z,5.05
2023-10-26T01:02:51.490Z,3.55
2023-10-26T01:05:08.471Z,5.65
2023-10-26T01:07:25.773Z,3.13
2023-10-26T01:09:42.722Z,4.85
2023-10-26T01:11:59.757Z,3.40
2023-10-26T01:14:16.757Z,4.18
2023-10-26T01:16:33.752Z,3.55
2023-10-26T01:18:50.776Z,3.30
2023-10-26T01:21:07.881Z,4.38
2023-10-26T01:23:24.782Z,4.03
2023-10-26T01:25:41.648Z,3.20
2023-10-26T01:27:59.103Z,3.88
2023-10-26T01:30:16.426Z,3.30
2023-10-26T01:32:33.357Z,4.55
2023-10-26T01:34:50.269Z,3.40
2023-10-26T01:37:07.269Z,4.28
2023-10-26T01:39:24.230Z,3.97
2023-10-26T01:41:41.277Z,6.53
2023-10-26T01:43:58.155Z,4.18
2023-10-26T01:46:15.064Z,5.35
2023-10-26T01:48:32.116Z,4.40
2023-10-26T01:50:49.154Z,3.15
2023-10-26T01:53:06.030Z,4.13
2023-10-26T01:55:23.055Z,4.80
2023-10-26T01:57:40.106Z,4.82
2023-10-26T01:59:57.165Z,4.85
2023-10-26T02:02:14.681Z,3.78
2023-10-26T02:04:31.600Z,4.85
2023-10-26T02:06:48.993Z,3.95
2023-10-26T02:09:06.610Z,4.95
2023-10-26T02:11:24.281Z,4.10
2023-10-26T02:13:41.178Z,5.53
2023-10-26T02:15:58.187Z,4.45
2023-10-26T02:18:15.201Z,3.67
2023-10-26T02:20:32.280Z,3.88
2023-10-26T02:22:49.183Z,3.80
2023-10-26T02:25:06.090Z,4.00
2023-10-26T02:27:23.142Z,3.70
2023-10-26T02:29:40.174Z,3.78
2023-10-26T02:31:57.048Z,3.83
2023-10-26T02:34:13.941Z,3.92
2023-10-26T02:36:30.922Z,3.85
2023-10-26T02:38:48.170Z,3.53
2023-10-26T02:41:05.230Z,3.15
2023-10-26T02:43:22.146Z,3.20
2023-10-26T02:45:39.094Z,3.50
2023-10-26T02:47:56.043Z,4.78
2023-10-26T02:50:13.310Z,3.35
2023-10-26T02:52:30.364Z,7.00
2023-10-26T02:54:47.326Z,4.75
2023-10-26T02:57:06.454Z,2.85
2023-10-26T02:59:23.389Z,5.53
2023-10-26T03:01:40.307Z,4.93
2023-10-26T03:03:57.448Z,3.80
2023-10-26T03:06:14.394Z,4.35
2023-10-26T03:08:31.294Z,4.13
2023-10-26T03:10:48.558Z,5.88
2023-10-26T03:13:05.486Z,3.35
2023-10-26T03:15:22.489Z,4.18
2023-10-26T03:17:39.875Z,2.72
2023-10-26T03:19:56.876Z,3.50
2023-10-26T03:22:13.819Z,5.00
2023-10-26T03:24:30.851Z,2.60
2023-10-26T03:26:47.872Z,2.63
2023-10-26T03:29:04.805Z,3.40
2023-10-26T03:31:22.103Z,2.35
2023-10-26T03:33:39.066Z,3.72
2023-10-26T03:35:56.034Z,3.25
2023-10-26T03:38:12.906Z,3.70
2023-10-26T03:40:30.070Z,3.33
2023-10-26T03:42:47.159Z,3.33
2023-10-26T03:45:04.075Z,3.28
2023-10-26T03:47:20.976Z,2.97
2023-10-26T03:49:37.903Z,5.15
2023-10-26T03:51:54.927Z,4.70
2023-10-26T03:54:12.000Z,5.25
2023-10-26T03:56:28.904Z,2.67
2023-10-26T03:58:45.818Z,3.10
2023-10-26T04:01:02.704Z,3.97
2023-10-26T04:03:20.105Z,2.92
2023-10-26T04:05:37.599Z,3.58
2023-10-26T04:07:54.514Z,2.45
2023-10-26T04:10:11.390Z,2.20
2023-10-26T04:12:28.808Z,2.53
2023-10-26T04:14:46.077Z,5.65
2023-10-26T04:17:03.429Z,4.13
2023-10-26T04:19:20.324Z,3.38
2023-10-26T04:21:37.198Z,6.53
2023-10-26T04:23:54.296Z,8.38
2023-10-26T04:26:11.303Z,6.45
2023-10-26T04:28:28.170Z,3.95
2023-10-26T04:30:45.054Z,4.43
2023-10-26T04:33:02.013Z,1.92
2023-10-26T04:35:19.084Z,4.80
2023-10-26T04:37:36.423Z,4.57
2023-10-26T04:39:53.330Z,2.60
2023-10-26T04:42:10.258Z,4.82
2023-10-26T04:44:27.219Z,3.35
2023-10-26T04:46:44.313Z,4.60
2023-10-26T04:49:01.186Z,2.60
2023-10-26T04:51:18.114Z,6.97
2023-10-26T04:53:35.034Z,4.20
2023-10-26T04:55:52.366Z,4.95
2023-10-26T04:58:09.243Z,2.22
2023-10-26T05:00:26.131Z,5.22
2023-10-26T05:02:43.122Z,5.55
2023-10-26T05:05:00.064Z,1.90
2023-10-26T05:07:16.960Z,2.90
2023-10-26T05:09:33.843Z,5.72
2023-10-26T05:11:51.255Z,3.03
2023-10-26T05:14:08.171Z,2.30
2023-10-26T05:16:25.486Z,4.05
2023-10-26T05:18:42.975Z,4.20
2023-10-26T05:21:00.474Z,3.83
2023-10-26T05:23:17.837Z,3.72
2023-10-26T05:25:34.742Z,4.88
2023-10-26T05:27:52.105Z,4.10
2023-10-26T05:30:09.182Z,5.05
2023-10-26T05:32:26.315Z,4.32
2023-10-26T05:34:43.555Z,3.50
2023-10-26T05:37:00.639Z,3.97
2023-10-26T05:39:17.619Z,5.40
2023-10-26T05:41:34.677Z,4.53
2023-10-26T05:43:51.627Z,3.00
2023-10-26T05:46:09.145Z,2.30
2023-10-26T05:48:26.520Z,3.95
2023-10-26T05:50:43.489Z,4.90
2023-10-26T05:53:00.531Z,3.30
2023-10-26T05:55:17.449Z,3.35
2023-10-26T05:57:34.381Z,7.03
2023-10-26T05:59:51.361Z,3.20
2023-10-26T06:02:08.411Z,3.60
2023-10-26T06:04:25.311Z,2.65
2023-10-26T06:06:42.208Z,4.53
2023-10-26T06:08:59.628Z,8.13
2023-10-26T06:11:17.155Z,3.83
2023-10-26T06:13:34.518Z,9.52
2023-10-26T06:15:51.404Z,4.88
2023-10-26T06:18:08.796Z,3.50
2023-10-26T06:20:26.286Z,7.38
2023-10-26T06:22:44.368Z,3.67
2023-10-26T06:25:01.505Z,3.92
2023-10-26T06:27:18.830Z,4.38
2023-10-26T06:29:36.396Z,2.58
2023-10-26T06:31:53.298Z,4.45
2023-10-26T06:34:10.652Z,10.85
2023-10-26T06:36:27.610Z,3.90
2023-10-26T06:38:45.025Z,3.22
2023-10-26T06:41:01.925Z,3.38
2023-10-26T06:43:18.901Z,5.40
2023-10-26T06:45:35.837Z,11.65
2023-10-26T06:47:54.164Z,5.40
2023-10-26T06:50:11.132Z,4.22
2023-10-26T06:52:28.056Z,7.50
2023-10-26T06:54:45.167Z,4.95
2023-10-26T06:57:02.251Z,4.45
2023-10-26T06:59:19.287Z,5.60
2023-10-26T07:02:09.071Z,7.45
2023-10-26T07:04:13.121Z,6.47
2023-10-26T07:06:30.281Z,5.05
2023-10-26T07:08:48.907Z,5.57
2023-10-26T07:11:07.283Z,4.28
2023-10-26T07:13:24.182Z,6.57
2023-10-26T07:15:41.079Z,7.55
2023-10-26T07:17:58.079Z,6.40
2023-10-26T07:20:15.020Z,6.70
2023-10-26T07:22:31.900Z,3.55
2023-10-26T07:24:48.752Z,5.00
2023-10-26T07:27:05.814Z,8.70
2023-10-26T07:29:22.730Z,5.45
2023-10-26T07:31:39.848Z,5.32
2023-10-26T07:33:56.824Z,5.38
2023-10-26T07:36:13.788Z,6.97
2023-10-26T07:38:34.667Z,5.45
2023-10-26T07:40:53.197Z,3.85
2023-10-26T07:43:10.178Z,5.00
2023-10-26T07:45:27.348Z,4.40
2023-10-26T07:47:44.358Z,3.58
2023-10-26T07:50:01.312Z,4.80
2023-10-26T07:52:18.272Z,5.22
2023-10-26T07:54:35.180Z,4.57
2023-10-26T07:56:52.213Z,4.47
2023-10-26T07:59:09.047Z,3.55
2023-10-26T08:01:25.998Z,4.60
2023-10-26T08:03:42.937Z,4.30
2023-10-26T08:06:00.312Z,3.88
2023-10-26T08:08:17.203Z,3.80
2023-10-26T08:10:34.133Z,6.05
2023-10-26T08:12:51.039Z,5.63
2023-10-26T08:16:28.392Z,7.63
2023-10-26T08:17:45.070Z,6.43
2023-10-26T08:20:02.353Z,4.38
2023-10-26T08:22:19.668Z,5.72
2023-10-26T08:24:36.585Z,5.90
2023-10-26T08:26:53.488Z,5.78
2023-10-26T08:29:18.683Z,8.07
2023-10-26T08:31:38.553Z,11.10
2023-10-26T08:33:55.524Z,2.67
2023-10-26T08:36:12.388Z,7.78
2023-10-26T08:38:29.238Z,4.82
2023-10-26T08:40:46.169Z,6.15
2023-10-26T08:43:03.079Z,3.47
2023-10-26T08:45:20.092Z,4.03
2023-10-26T08:47:37.052Z,4.53
2023-10-26T08:50:08.111Z,7.82
2023-10-26T08:52:30.897Z,3.97
2023-10-26T08:54:47.835Z,2.42
2023-10-26T08:57:04.769Z,3.90
2023-10-26T08:59:22.412Z,3.80
2023-10-26T09:01:39.602Z,5.75
2023-10-26T09:03:56.687Z,4.63
2023-10-26T09:06:13.798Z,5.15
2023-10-26T09:08:30.719Z,4.43
2023-10-26T09:10:47.670Z,6.40
2023-10-26T09:13:04.660Z,4.85
2023-10-26T09:15:21.648Z,4.72
2023-10-26T09:17:38.686Z,7.60
2023-10-26T09:19:55.782Z,13.10
2023-10-26T09:22:14.002Z,8.80
2023-10-26T09:24:31.234Z,5.63
2023-10-26T09:26:48.250Z,5.05
2023-10-26T09:29:05.409Z,4.22
2023-10-26T09:31:22.366Z,5.75
2023-10-26T09:33:39.526Z,3.78
2023-10-26T09:35:56.494Z,5.13
2023-10-26T09:38:13.543Z,3.95
2023-10-26T09:40:30.503Z,9.43
2023-10-26T09:42:47.883Z,5.07
2023-10-26T09:45:04.887Z,6.57
2023-10-26T09:47:23.247Z,5.03
2023-10-26T09:49:41.765Z,6.68
2023-10-26T09:51:58.783Z,6.30
2023-10-26T09:54:15.882Z,8.88
2023-10-26T09:56:32.827Z,9.32
2023-10-26T09:58:50.110Z,4.72
2023-10-26T10:01:07.309Z,5.18
2023-10-26T10:03:24.281Z,5.70
2023-10-26T10:05:41.242Z,5.72
2023-10-26T10:07:58.105Z,4.43
2023-10-26T10:10:15.464Z,4.43
2023-10-26T10:12:32.485Z,4.25
2023-10-26T10:14:54.569Z,6.32
2023-10-26T10:17:13.115Z,6.95
2023-10-26T10:19:31.644Z,3.65
2023-10-26T10:21:50.607Z,5.20
2023-10-26T10:24:07.682Z,5.75
2023-10-26T10:26:27.242Z,5.32
2023-10-26T10:28:44.907Z,7.05
2023-10-26T10:31:01.898Z,4.72
2023-10-26T10:33:18.999Z,4.68
2023-10-26T10:35:36.447Z,4.78
2023-10-26T10:37:53.332Z,4.88
2023-10-26T10:40:10.310Z,6.35
2023-10-26T10:42:27.363Z,4.03
2023-10-26T10:44:44.523Z,7.85
2023-10-26T10:49:36.530Z,3.47
2023-10-26T10:51:54.124Z,4.50
2023-10-26T10:54:24.159Z,6.43
2023-10-26T10:56:47.521Z,4.30
2023-10-26T10:59:04.603Z,5.05
2023-10-26T11:01:21.667Z,9.52
2023-10-26T11:03:38.711Z,5.57
2023-10-26T11:05:55.742Z,4.90
2023-10-26T11:08:12.797Z,5.63
2023-10-26T11:10:29.750Z,6.55
2023-10-26T11:12:46.772Z,7.00
2023-10-26T11:15:03.774Z,6.40
2023-10-26T11:17:21.203Z,5.45
2023-10-26T11:19:38.450Z,6.40
2023-10-26T11:21:55.401Z,5.82
2023-10-26T11:24:12.559Z,7.07
2023-10-26T11:26:29.537Z,4.30
2023-10-26T11:28:46.509Z,5.30
2023-10-26T11:31:03.540Z,3.88
2023-10-26T11:33:20.913Z,6.50
2023-10-26T11:35:37.790Z,4.45
2023-10-26T11:37:54.745Z,5.60
2023-10-26T11:40:11.753Z,5.13
2023-10-26T11:42:31.355Z,4.85
2023-10-26T11:44:48.352Z,4.30
2023-10-26T11:47:05.303Z,4.55
2023-10-26T11:49:23.274Z,4.85
2023-10-26T11:51:44.842Z,3.33
2023-10-26T11:54:07.669Z,6.70
2023-10-26T11:56:25.593Z,5.50
2023-10-26T12:00:59.453Z,3.67
2023-10-26T12:03:19.203Z,4.80
2023-10-26T12:05:36.179Z,3.45
2023-10-26T12:07:55.719Z,3.25
2023-10-26T12:10:12.660Z,4.28
2023-10-26T12:12:30.005Z,5.60
2023-10-26T12:14:47.251Z,3.28
2023-10-26T12:17:04.163Z,2.85
2023-10-26T12:19:21.115Z,2.92
2023-10-26T12:21:38.664Z,4.97
2023-10-26T12:23:55.840Z,2.20
2023-10-26T12:26:12.771Z,3.67
2023-10-26T12:28:30.785Z,2.25
2023-10-26T12:30:47.990Z,3.03
2023-10-26T12:33:05.166Z,3.55
2023-10-26T12:35:22.129Z,3.42
2023-10-26T12:37:39.170Z,2.58
2023-10-26T12:39:56.252Z,3.05
2023-10-26T12:42:13.660Z,3.63
2023-10-26T12:44:30.569Z,4.85
2023-10-26T12:46:47.556Z,4.85
2023-10-26T12:49:04.557Z,5.25
2023-10-26T12:51:21.550Z,7.07
2023-10-26T12:53:38.551Z,3.72
2023-10-26T12:55:55.422Z,5.65
2023-10-26T12:58:13.510Z,5.95
2023-10-26T13:00:32.616Z,5.13
2023-10-26T13:02:49.876Z,5.38
2023-10-26T13:05:07.348Z,7.40
2023-10-26T13:07:24.396Z,5.03
2023-10-26T13:09:41.528Z,11.27
2023-10-26T13:11:59.831Z,7.47
2023-10-26T13:14:17.916Z,10.55
2023-10-26T13:16:50.429Z,6.63
2023-10-26T13:19:15.352Z,6.55
2023-10-26T13:21:32.433Z,6.70
2023-10-26T13:23:51.826Z,5.32
2023-10-26T13:26:09.002Z,6.30
2023-10-26T13:28:25.970Z,7.68
2023-10-26T13:30:43.070Z,8.43
2023-10-26T13:33:00.047Z,11.75
2023-10-26T13:35:17.085Z,7.55
2023-10-26T13:37:34.325Z,5.53
2023-10-26T13:39:51.286Z,5.93
2023-10-26T13:42:08.779Z,5.40
2023-10-26T13:44:26.127Z,4.53
2023-10-26T13:46:43.229Z,6.40
2023-10-26T13:49:00.202Z,6.72
2023-10-26T13:51:18.308Z,10.25
2023-10-26T13:53:35.279Z,6.05
2023-10-26T13:55:52.354Z,5.25
2023-10-26T13:58:10.290Z,8.10
2023-10-26T14:00:27.203Z,6.72
2023-10-26T14:02:44.118Z,7.53
2023-10-26T14:05:01.277Z,6.32
2023-10-26T14:07:18.988Z,9.13
2023-10-26T14:09:35.984Z,7.63
2023-10-26T14:11:52.987Z,5.65
2023-10-26T14:14:10.373Z,5.65
2023-10-26T14:16:30.403Z,6.85
2023-10-26T14:18:48.722Z,6.20
2023-10-26T14:21:05.864Z,7.45
2023-10-26T14:23:22.767Z,7.53
2023-10-26T14:25:45.450Z,7.88
2023-10-26T14:28:02.373Z,10.00
2023-10-26T14:30:19.502Z,12.10
2023-10-26T14:32:36.508Z,13.65
2023-10-26T14:34:53.740Z,12.45
2023-10-26T14:37:11.101Z,10.13
2023-10-26T14:39:28.136Z,13.77
2023-10-26T14:41:45.456Z,9.02
2023-10-26T14:44:02.370Z,5.95
2023-10-26T14:46:19.869Z,9.10
2023-10-26T14:48:36.974Z,9.52
2023-10-26T14:50:53.954Z,8.63
2023-10-26T14:53:10.978Z,6.85
2023-10-26T14:55:27.934Z,7.22
2023-10-26T14:57:45.104Z,10.95
2023-10-26T15:00:03.215Z,12.05
2023-10-26T15:02:20.163Z,14.55
2023-10-26T15:04:37.517Z,10.07
2023-10-26T15:06:58.584Z,8.40
2023-10-26T15:10:21.031Z,10.20
2023-10-26T15:11:56.967Z,9.57
2023-10-26T15:14:15.567Z,9.07
2023-10-26T15:16:32.576Z,12.50
2023-10-26T15:18:50.170Z,14.45
2023-10-26T15:21:07.227Z,17.30
2023-10-26T15:23:24.231Z,22.50
2023-10-26T15:25:41.179Z,13.57
2023-10-26T15:27:59.668Z,17.08
2023-10-26T15:30:17.769Z,11.32
2023-10-26T15:32:37.805Z,11.50
2023-10-26T15:34:54.795Z,9.77
2023-10-26T15:37:11.779Z,10.68
2023-10-26T15:39:31.325Z,10.45
2023-10-26T15:41:48.485Z,13.05
2023-10-26T15:44:05.578Z,12.43
2023-10-26T15:46:22.671Z,8.65
2023-10-26T15:49:32.369Z,8.48
2023-10-26T15:51:17.739Z,9.55
2023-10-26T15:53:34.684Z,9.13
2023-10-26T15:55:52.436Z,11.68
2023-10-26T15:58:09.532Z,9.77
2023-10-26T16:00:26.538Z,9.32
2023-10-26T16:02:44.647Z,10.90
2023-10-26T16:05:01.831Z,9.75
2023-10-26T16:07:18.830Z,12.63
2023-10-26T16:09:37.330Z,9.63
2023-10-26T16:11:54.613Z,10.35
2023-10-26T16:14:11.669Z,7.63
2023-10-26T16:16:29.264Z,10.20
2023-10-26T16:18:46.849Z,7.57
2023-10-26T16:21:03.920Z,8.45
2023-10-26T16:23:20.909Z,8.57
2023-10-26T16:25:37.786Z,8.18
2023-10-26T16:27:54.765Z,10.18
2023-10-26T16:30:11.668Z,7.38
2023-10-26T16:32:28.688Z,8.38
2023-10-26T16:34:46.219Z,8.65
2023-10-26T16:37:03.241Z,8.82
2023-10-26T16:39:20.278Z,10.45
2023-10-26T16:41:37.309Z,7.70
2023-10-26T16:43:54.218Z,8.43
2023-10-26T16:46:13.350Z,9.25
2023-10-26T16:48:30.544Z,7.40
2023-10-26T16:50:47.625Z,9.43
2023-10-26T16:53:10.272Z,7.85
2023-10-26T16:55:32.931Z,8.57
2023-10-26T16:57:49.947Z,9.60
2023-10-26T17:00:07.020Z,8.93
2023-10-26T17:02:23.948Z,8.18
2023-10-26T17:04:40.899Z,8.88
2023-10-26T17:07:00.392Z,10.30
2023-10-26T17:09:17.404Z,9.98
2023-10-26T17:11:34.380Z,8.35
2023-10-26T17:13:51.265Z,12.45
2023-10-26T17:16:08.272Z,9.85
2023-10-26T17:18:26.286Z,9.23
2023-10-26T17:20:43.361Z,9.98
2023-10-26T17:23:00.306Z,9.57
2023-10-26T17:25:17.286Z,10.15
2023-10-26T17:27:34.213Z,11.63
2023-10-26T17:29:51.217Z,13.10
2023-10-26T17:32:08.142Z,10.70
2023-10-26T17:34:25.233Z,9.50
2023-10-26T17:36:42.185Z,9.57
2023-10-26T17:38:59.800Z,10.90
2023-10-26T17:41:16.717Z,11.25
2023-10-26T17:43:33.627Z,8.77
2023-10-26T17:45:50.837Z,13.20
2023-10-26T17:48:07.887Z,10.20
2023-10-26T17:50:24.886Z,6.93
2023-10-26T17:52:41.996Z,10.23
2023-10-26T17:55:00.484Z,11.50
2023-10-26T17:57:19.702Z,7.90
2023-10-26T17:59:36.648Z,12.70
2023-10-26T18:01:53.640Z,6.95
2023-10-26T18:04:10.648Z,8.82
2023-10-26T18:06:27.604Z,9.07
2023-10-26T18:08:44.601Z,9.55
2023-10-26T18:11:01.528Z,9.48
2023-10-26T18:13:18.471Z,8.48
2023-10-26T18:15:35.374Z,8.77
2023-10-26T18:17:52.357Z,9.30
2023-10-26T18:20:09.355Z,9.90
2023-10-26T18:22:26.459Z,7.85
2023-10-26T18:24:43.399Z,12.85
2023-10-26T18:27:00.367Z,6.97
2023-10-26T18:29:17.277Z,7.63
2023-10-26T18:31:34.332Z,9.13
2023-10-26T18:33:51.335Z,7.25
2023-10-26T18:36:08.269Z,8.68
2023-10-26T18:38:25.218Z,15.25
2023-10-26T18:40:42.179Z,11.93
2023-10-26T18:42:59.175Z,8.30
2023-10-26T18:45:16.135Z,6.80
2023-10-26T18:47:34.149Z,12.38
2023-10-26T18:49:51.167Z,5.05
2023-10-26T18:52:10.483Z,6.07
2023-10-26T18:54:27.493Z,9.00
2023-10-26T18:56:46.785Z,11.23
2023-10-26T18:59:03.827Z,10.40
2023-10-26T19:01:22.671Z,13.27
2023-10-26T19:03:53.753Z,10.57
2023-10-26T19:06:22.477Z,15.70
2023-10-26T19:08:39.441Z,12.68
2023-10-26T19:10:56.953Z,13.52
2023-10-26T19:13:14.186Z,6.63
2023-10-26T19:15:31.290Z,10.93
2023-10-26T19:17:48.222Z,10.02
2023-10-26T19:20:05.189Z,9.52
2023-10-26T19:22:22.124Z,13.68
2023-10-26T19:24:39.284Z,31.25
2023-10-26T19:26:56.424Z,13.80
2023-10-26T19:29:13.325Z,15.60
2023-10-26T19:31:30.444Z,19.10
2023-10-26T19:33:47.508Z,13.77
2023-10-26T19:36:04.753Z,18.50
2023-10-26T19:38:21.872Z,12.70
2023-10-26T19:40:46.417Z,13.40
2023-10-26T19:45:25.516Z,13.60
2023-10-26T19:47:42.519Z,9.88
2023-10-26T19:49:59.482Z,14.10
2023-10-26T19:52:16.924Z,15.82
2023-10-26T19:54:34.049Z,17.65
2023-10-26T19:56:51.157Z,12.38
2023-10-26T19:59:09.147Z,19.63
2023-10-26T20:01:28.914Z,15.93
2023-10-26T20:03:46.377Z,13.80
2023-10-26T20:06:05.043Z,16.73
2023-10-26T20:08:22.165Z,25.30
2023-10-26T20:10:40.533Z,22.88
2023-10-26T20:12:57.614Z,16.70
2023-10-26T20:15:14.664Z,19.33
2023-10-26T20:17:32.004Z,16.98
2023-10-26T20:19:49.064Z,25.15
2023-10-26T20:22:06.069Z,39.28
2023-10-26T20:24:23.459Z,16.67
2023-10-26T20:26:40.768Z,20.02
2023-10-26T20:28:57.730Z,19.25
2023-10-26T20:31:16.458Z,17.23
2023-10-26T20:33:33.672Z,13.63
2023-10-26T20:35:50.641Z,12.73
2023-10-26T20:38:07.735Z,15.35
2023-10-26T20:40:24.779Z,13.40
2023-10-26T20:42:44.361Z,17.63
2023-10-26T20:45:01.598Z,15.65
2023-10-26T20:47:18.582Z,15.15
2023-10-26T20:49:35.599Z,14.75
2023-10-26T20:51:52.614Z,12.63
2023-10-26T20:54:12.646Z,13.23
2023-10-26T20:56:29.524Z,12.45
2023-10-26T20:58:46.461Z,16.80
2023-10-26T21:01:03.339Z,16.77
2023-10-26T21:03:20.309Z,11.38
2023-10-26T21:05:43.435Z,10.38
2023-10-26T21:08:00.552Z,15.48
2023-10-26T21:10:17.603Z,18.17
2023-10-26T21:12:34.587Z,11.90
2023-10-26T21:14:51.592Z,16.65
2023-10-26T21:17:08.572Z,10.95
2023-10-26T21:19:25.526Z,10.93
2023-10-26T21:21:42.477Z,13.02
2023-10-26T21:23:59.407Z,12.52
2023-10-26T21:26:17.346Z,36.80
2023-10-26T21:28:34.347Z,13.35
2023-10-26T21:30:51.308Z,25.83
2023-10-26T21:33:08.264Z,19.38
2023-10-26T21:35:25.248Z,19.20
2023-10-26T21:37:42.172Z,31.75
2023-10-26T21:39:59.590Z,11.73
2023-10-26T21:42:16.720Z,26.05
2023-10-26T21:44:33.628Z,13.20
2023-10-26T21:46:50.719Z,12.43
2023-10-26T21:49:07.739Z,8.63
2023-10-26T21:51:24.788Z,15.48
2023-10-26T21:53:41.763Z,17.25
2023-10-26T21:55:59.161Z,17.67
2023-10-26T21:58:16.226Z,38.88
2023-10-26T22:00:35.407Z,10.32
2023-10-26T22:02:53.497Z,12.00
2023-10-26T22:05:10.496Z,16.17
2023-10-26T22:07:27.401Z,12.77
2023-10-26T22:09:54.540Z,9.60
2023-10-26T22:12:12.303Z,11.55
2023-10-26T22:14:29.266Z,17.30
2023-10-26T22:16:46.351Z,18.75
2023-10-26T22:19:03.285Z,10.77
2023-10-26T22:21:20.208Z,12.88
2023-10-26T22:23:37.126Z,7.72
2023-10-26T22:25:53.982Z,10.13
2023-10-26T22:28:10.899Z,10.27
2023-10-26T22:30:28.360Z,6.60
2023-10-26T22:32:45.446Z,15.27
2023-10-26T22:35:02.533Z,15.70
2023-10-26T22:37:23.702Z,11.00
2023-10-26T22:39:40.610Z,8.82
2023-10-26T22:41:57.527Z,10.93
2023-10-26T22:44:14.419Z,11.35
2023-10-26T22:46:34.576Z,11.98
2023-10-26T22:48:51.728Z,13.05
2023-10-26T22:51:08.641Z,10.20
2023-10-26T22:53:25.513Z,9.75
2023-10-26T22:55:42.448Z,14.20
2023-10-26T22:57:59.769Z,11.55
2023-10-26T23:00:16.641Z,7.57
2023-10-26T23:02:33.600Z,9.52
2023-10-26T23:04:50.618Z,8.30
2023-10-26T23:07:07.567Z,13.30
2023-10-26T23:09:24.497Z,11.00
2023-10-26T23:11:41.495Z,11.80
2023-10-26T23:13:58.454Z,11.65
2023-10-26T23:16:15.542Z,12.82
2023-10-26T23:18:32.632Z,14.02
2023-10-26T23:20:49.603Z,9.45
2023-10-26T23:23:06.685Z,9.65
2023-10-26T23:25:24.101Z,9.18
2023-10-26T23:27:41.019Z,11.90
2023-10-26T23:29:57.965Z,9.20
2023-10-26T23:32:14.922Z,12.02
2023-10-26T23:34:32.391Z,10.60
2023-10-26T23:36:49.348Z,11.13
2023-10-26T23:39:06.305Z,11.73
2023-10-26T23:41:23.179Z,15.43
2023-10-26T23:43:40.589Z,10.93
2023-10-26T23:45:57.556Z,8.48
2023-10-26T23:48:14.973Z,10.75
2023-10-26T23:50:31.867Z,9.40
2023-10-26T23:52:48.904Z,12.30
2023-10-26T23:55:05.909Z,10.52
2023-10-26T23:57:22.836Z,10.70
2023-10-26T23:59:39.818Z,11.65
